Joe, North Carolina
Current Conditions -  °F | °C
As of 1:54 PM on Thursday 30 Oct 2014 (Local Time) from KAVL Reporting Station
Clear Clear  
Wind Chill: 60°   Ceiling: Unl
Heat Index: 60°   Visibility: 10mi
Dew Point: 30°   Wind: 10mph
Humidity: 32%   Direction: 360°N
Pressure: 30.03"   Gusts: NA
Location:  35.8037°N, 82.868°W
Report Text: KAVL 301754Z 36009KT 10SM CLR 16/M01 A3003 RMK AO2 SLP157 T01561011 10161 20039 58022
Loading
Personal Weather Stations






























Interactive Weather Map
Tropical Storm Tracking
New forecast layout! Learn more

10-Day Weather Forecast

Advertisements
Track Severe Weather on mobile